sensor_id;sensor_type;location;lat;lon;timestamp;pressure;altitude;pressure_sealevel;temperature;humidity
8140;BME280;4111;50.972;7.072;2023-08-12T00:01:51;101316.06;;;24.43;100.00
8140;BME280;4111;50.972;7.072;2023-08-12T00:04:17;101316.34;;;24.50;100.00
8140;BME280;4111;50.972;7.072;2023-08-12T00:06:44;101312.13;;;24.44;99.54
8140;BME280;4111;50.972;7.072;2023-08-12T00:09:10;101310.31;;;24.22;99.79
8140;BME280;4111;50.972;7.072;2023-08-12T00:11:41;101318.31;;;24.06;100.00
8140;BME280;4111;50.972;7.072;2023-08-12T00:14:07;101318.59;;;23.87;100.00
8140;BME280;4111;50.972;7.072;2023-08-12T00:16:34;101318.66;;;23.64;100.00
8140;BME280;4111;50.972;7.072;2023-08-12T00:19:00;101318.97;;;23.54;100.00
8140;BME280;4111;50.972;7.072;2023-08-12T00:21:27;101317.78;;;23.86;100.00
8140;BME280;4111;50.972;7.072;2023-08-12T00:23:54;101318.47;;;24.27;100.00
8140;BME280;4111;50.972;7.072;2023-08-12T00:26:20;101312.78;;;24.58;100.00
8140;BME280;4111;50.972;7.072;2023-08-12T00:28:48;101315.06;;;24.73;100.00
8140;BME280;4111;50.972;7.072;2023-08-12T00:31:15;101317.03;;;24.64;100.00
8140;BME280;4111;50.972;7.072;2023-08-12T00:33:41;101311.31;;;24.52;100.00
8140;BME280;4111;50.972;7.072;2023-08-12T00:36:08;101309.69;;;24.60;99.74
8140;BME280;4111;50.972;7.072;2023-08-12T00:38:34;101317.03;;;24.64;99.63
8140;BME280;4111;50.972;7.072;2023-08-12T00:41:01;101310.50;;;24.43;99.60
8140;BME280;4111;50.972;7.072;2023-08-12T00:43:27;101305.56;;;24.22;99.77
8140;BME280;4111;50.972;7.072;2023-08-12T00:45:53;101300.50;;;23.98;100.00
8140;BME280;4111;50.972;7.072;2023-08-12T00:48:20;101307.41;;;23.69;100.00
8140;BME280;4111;50.972;7.072;2023-08-12T00:50:46;101313.56;;;23.58;100.00
8140;BME280;4111;50.972;7.072;2023-08-12T00:53:14;101303.09;;;23.46;100.00
8140;BME280;4111;50.972;7.072;2023-08-12T00:55:42;101302.88;;;23.33;100.00
8140;BME280;4111;50.972;7.072;2023-08-12T00:58:08;101307.75;;;23.68;100.00
8140;BME280;4111;50.972;7.072;2023-08-12T01:00:35;101299.97;;;23.87;100.00
8140;BME280;4111;50.972;7.072;2023-08-12T01:03:02;101289.25;;;23.94;100.00
8140;BME280;4111;50.972;7.072;2023-08-12T01:05:30;101279.94;;;23.90;100.00
8140;BME280;4111;50.972;7.072;2023-08-12T01:07:56;101285.78;;;23.89;100.00
8140;BME280;4111;50.972;7.072;2023-08-12T01:10:24;101280.06;;;23.85;100.00
8140;BME280;4111;50.972;7.072;2023-08-12T01:12:59;101277.16;;;23.90;100.00
8140;BME280;4111;50.972;7.072;2023-08-12T01:15:28;101276.28;;;23.72;100.00
8140;BME280;4111;50.972;7.072;2023-08-12T01:17:55;101267.41;;;23.53;100.00
8140;BME280;4111;50.972;7.072;2023-08-12T01:20:25;101262.63;;;23.36;100.00
8140;BME280;4111;50.972;7.072;2023-08-12T01:22:57;101252.09;;;23.07;100.00
8140;BME280;4111;50.972;7.072;2023-08-12T01:25:25;101250.22;;;22.93;100.00
8140;BME280;4111;50.972;7.072;2023-08-12T01:27:51;101253.53;;;23.04;100.00
8140;BME280;4111;50.972;7.072;2023-08-12T01:30:19;101251.84;;;23.26;100.00
8140;BME280;4111;50.972;7.072;2023-08-12T01:32:57;101259.84;;;23.36;100.00
8140;BME280;4111;50.972;7.072;2023-08-12T01:35:31;101246.22;;;23.48;100.00
8140;BME280;4111;50.972;7.072;2023-08-12T01:38:02;101244.56;;;23.39;100.00
8140;BME280;4111;50.972;7.072;2023-08-12T01:40:31;101233.66;;;23.51;100.00
8140;BME280;4111;50.972;7.072;2023-08-12T01:42:58;101233.88;;;23.72;100.00
8140;BME280;4111;50.972;7.072;2023-08-12T01:45:25;101243.19;;;23.76;100.00
8140;BME280;4111;50.972;7.072;2023-08-12T01:47:52;101240.72;;;23.74;100.00
8140;BME280;4111;50.972;7.072;2023-08-12T01:50:19;101240.69;;;23.57;100.00
8140;BME280;4111;50.972;7.072;2023-08-12T01:52:48;101220.47;;;23.56;100.00
8140;BME280;4111;50.972;7.072;2023-08-12T01:55:14;101224.06;;;23.48;100.00
8140;BME280;4111;50.972;7.072;2023-08-12T01:57:40;101225.28;;;23.25;100.00
8140;BME280;4111;50.972;7.072;2023-08-12T02:00:07;101232.25;;;23.13;100.00
8140;BME280;4111;50.972;7.072;2023-08-12T02:02:34;101226.59;;;22.96;100.00
8140;BME280;4111;50.972;7.072;2023-08-12T02:05:01;101224.09;;;22.86;100.00
8140;BME280;4111;50.972;7.072;2023-08-12T02:07:27;101223.25;;;22.76;100.00
8140;BME280;4111;50.972;7.072;2023-08-12T02:09:54;101225.31;;;22.71;100.00
8140;BME280;4111;50.972;7.072;2023-08-12T02:12:20;101218.44;;;22.60;100.00
8140;BME280;4111;50.972;7.072;2023-08-12T02:14:47;101223.97;;;22.60;100.00
8140;BME280;4111;50.972;7.072;2023-08-12T02:17:13;101217.78;;;22.94;100.00
8140;BME280;4111;50.972;7.072;2023-08-12T02:19:40;101216.00;;;23.21;100.00
8140;BME280;4111;50.972;7.072;2023-08-12T02:22:06;101216.66;;;23.26;100.00
8140;BME280;4111;50.972;7.072;2023-08-12T02:24:33;101214.34;;;23.20;100.00
8140;BME280;4111;50.972;7.072;2023-08-12T02:26:59;101216.47;;;23.23;100.00
8140;BME280;4111;50.972;7.072;2023-08-12T02:29:26;101208.66;;;23.25;100.00
8140;BME280;4111;50.972;7.072;2023-08-12T02:31:52;101212.56;;;23.24;100.00
8140;BME280;4111;50.972;7.072;2023-08-12T02:34:19;101216.50;;;23.00;100.00
8140;BME280;4111;50.972;7.072;2023-08-12T02:36:45;101209.91;;;22.78;100.00
8140;BME280;4111;50.972;7.072;2023-08-12T02:39:12;101206.91;;;22.66;100.00
8140;BME280;4111;50.972;7.072;2023-08-12T02:41:38;101207.00;;;22.52;100.00
8140;BME280;4111;50.972;7.072;2023-08-12T02:44:05;101204.50;;;22.42;100.00
8140;BME280;4111;50.972;7.072;2023-08-12T02:46:31;101203.78;;;22.36;100.00
8140;BME280;4111;50.972;7.072;2023-08-12T02:48:58;101190.94;;;22.63;100.00
8140;BME280;4111;50.972;7.072;2023-08-12T02:51:24;101194.13;;;22.79;100.00
8140;BME280;4111;50.972;7.072;2023-08-12T02:53:50;101196.09;;;22.87;100.00
8140;BME280;4111;50.972;7.072;2023-08-12T02:56:18;101186.44;;;22.76;100.00
8140;BME280;4111;50.972;7.072;2023-08-12T02:58:44;101189.53;;;22.74;100.00
8140;BME280;4111;50.972;7.072;2023-08-12T03:01:11;101192.47;;;22.78;100.00
8140;BME280;4111;50.972;7.072;2023-08-12T03:03:37;101182.16;;;22.61;100.00
8140;BME280;4111;50.972;7.072;2023-08-12T03:06:04;101182.88;;;22.53;100.00
8140;BME280;4111;50.972;7.072;2023-08-12T03:08:31;101180.84;;;22.36;100.00
8140;BME280;4111;50.972;7.072;2023-08-12T03:11:01;101175.91;;;22.24;100.00
8140;BME280;4111;50.972;7.072;2023-08-12T03:13:29;101173.13;;;22.24;100.00
8140;BME280;4111;50.972;7.072;2023-08-12T03:15:56;101177.13;;;22.18;100.00
8140;BME280;4111;50.972;7.072;2023-08-12T03:18:23;101178.69;;;22.10;100.00
8140;BME280;4111;50.972;7.072;2023-08-12T03:20:49;101171.06;;;22.30;100.00
8140;BME280;4111;50.972;7.072;2023-08-12T03:23:15;101168.03;;;22.71;100.00
8140;BME280;4111;50.972;7.072;2023-08-12T03:25:42;101182.09;;;22.84;100.00
8140;BME280;4111;50.972;7.072;2023-08-12T03:28:08;101156.59;;;23.04;100.00
8140;BME280;4111;50.972;7.072;2023-08-12T03:30:35;101163.72;;;22.96;100.00
8140;BME280;4111;50.972;7.072;2023-08-12T03:33:01;101163.00;;;22.73;100.00
8140;BME280;4111;50.972;7.072;2023-08-12T03:35:29;101161.44;;;22.58;100.00
8140;BME280;4111;50.972;7.072;2023-08-12T03:37:55;101151.13;;;22.50;100.00
8140;BME280;4111;50.972;7.072;2023-08-12T03:40:22;101151.09;;;22.42;100.00
8140;BME280;4111;50.972;7.072;2023-08-12T03:42:48;101154.31;;;22.35;100.00
8140;BME280;4111;50.972;7.072;2023-08-12T03:45:14;101145.66;;;22.28;100.00
8140;BME280;4111;50.972;7.072;2023-08-12T03:47:41;101140.28;;;22.31;100.00
8140;BME280;4111;50.972;7.072;2023-08-12T03:50:08;101136.59;;;22.67;100.00
8140;BME280;4111;50.972;7.072;2023-08-12T03:52:34;101138.78;;;22.96;100.00
8140;BME280;4111;50.972;7.072;2023-08-12T03:55:01;101130.91;;;23.12;100.00
8140;BME280;4111;50.972;7.072;2023-08-12T03:57:28;101127.09;;;23.00;100.00
8140;BME280;4111;50.972;7.072;2023-08-12T03:59:55;101123.16;;;22.92;100.00
8140;BME280;4111;50.972;7.072;2023-08-12T04:02:21;101117.91;;;22.82;100.00
8140;BME280;4111;50.972;7.072;2023-08-12T04:04:48;101111.94;;;22.57;100.00
8140;BME280;4111;50.972;7.072;2023-08-12T04:07:14;101114.78;;;22.43;100.00
8140;BME280;4111;50.972;7.072;2023-08-12T04:09:41;101106.22;;;22.22;100.00
8140;BME280;4111;50.972;7.072;2023-08-12T04:12:07;101102.25;;;22.14;100.00
8140;BME280;4111;50.972;7.072;2023-08-12T04:14:33;101090.97;;;22.02;100.00
8140;BME280;4111;50.972;7.072;2023-08-12T04:17:00;101091.88;;;21.97;100.00
8140;BME280;4111;50.972;7.072;2023-08-12T04:19:26;101095.59;;;21.93;100.00
8140;BME280;4111;50.972;7.072;2023-08-12T04:21:53;101098.53;;;22.19;100.00
8140;BME280;4111;50.972;7.072;2023-08-12T04:24:19;101096.41;;;22.16;100.00
8140;BME280;4111;50.972;7.072;2023-08-12T04:26:46;101095.03;;;22.27;100.00
8140;BME280;4111;50.972;7.072;2023-08-12T04:29:12;101101.44;;;22.36;100.00
8140;BME280;4111;50.972;7.072;2023-08-12T04:31:40;101098.66;;;22.36;100.00
8140;BME280;4111;50.972;7.072;2023-08-12T04:34:07;101102.22;;;22.37;100.00
8140;BME280;4111;50.972;7.072;2023-08-12T04:36:33;101099.44;;;22.28;100.00
8140;BME280;4111;50.972;7.072;2023-08-12T04:38:59;101102.44;;;22.18;100.00
8140;BME280;4111;50.972;7.072;2023-08-12T04:41:26;101101.06;;;22.07;100.00
8140;BME280;4111;50.972;7.072;2023-08-12T04:43:52;101093.84;;;21.97;100.00
8140;BME280;4111;50.972;7.072;2023-08-12T04:46:19;101094.81;;;21.92;100.00
8140;BME280;4111;50.972;7.072;2023-08-12T04:48:46;101095.22;;;21.86;100.00
8140;BME280;4111;50.972;7.072;2023-08-12T04:51:12;101094.22;;;21.82;100.00
8140;BME280;4111;50.972;7.072;2023-08-12T04:53:39;101089.34;;;21.78;100.00
8140;BME280;4111;50.972;7.072;2023-08-12T04:56:05;101095.44;;;21.67;100.00
8140;BME280;4111;50.972;7.072;2023-08-12T04:58:31;101095.66;;;21.56;100.00
8140;BME280;4111;50.972;7.072;2023-08-12T05:00:58;101085.72;;;21.55;100.00
8140;BME280;4111;50.972;7.072;2023-08-12T05:03:24;101091.38;;;21.95;100.00
8140;BME280;4111;50.972;7.072;2023-08-12T05:05:52;101097.53;;;22.15;100.00
8140;BME280;4111;50.972;7.072;2023-08-12T05:08:19;101097.66;;;22.32;100.00
8140;BME280;4111;50.972;7.072;2023-08-12T05:10:49;101095.41;;;22.34;100.00
8140;BME280;4111;50.972;7.072;2023-08-12T05:13:16;101082.38;;;22.35;100.00
8140;BME280;4111;50.972;7.072;2023-08-12T05:15:46;101079.31;;;22.14;100.00
8140;BME280;4111;50.972;7.072;2023-08-12T05:18:13;101083.84;;;22.10;100.00
8140;BME280;4111;50.972;7.072;2023-08-12T05:20:41;101081.81;;;22.02;100.00
8140;BME280;4111;50.972;7.072;2023-08-12T05:23:11;101086.75;;;22.05;100.00
8140;BME280;4111;50.972;7.072;2023-08-12T05:25:39;101093.09;;;22.05;100.00
8140;BME280;4111;50.972;7.072;2023-08-12T05:28:05;101088.31;;;21.97;100.00
8140;BME280;4111;50.972;7.072;2023-08-12T05:30:31;101096.63;;;21.97;100.00
8140;BME280;4111;50.972;7.072;2023-08-12T05:32:58;101096.41;;;21.93;100.00
8140;BME280;4111;50.972;7.072;2023-08-12T05:35:25;101088.78;;;21.90;100.00
8140;BME280;4111;50.972;7.072;2023-08-12T05:37:51;101086.63;;;21.87;100.00
8140;BME280;4111;50.972;7.072;2023-08-12T05:40:18;101087.44;;;21.88;100.00
8140;BME280;4111;50.972;7.072;2023-08-12T05:42:44;101088.88;;;21.85;100.00
8140;BME280;4111;50.972;7.072;2023-08-12T05:45:11;101094.41;;;21.85;100.00
8140;BME280;4111;50.972;7.072;2023-08-12T05:47:37;101089.03;;;21.80;100.00
8140;BME280;4111;50.972;7.072;2023-08-12T05:50:04;101094.53;;;22.03;100.00
8140;BME280;4111;50.972;7.072;2023-08-12T05:52:32;101096.47;;;22.25;100.00
8140;BME280;4111;50.972;7.072;2023-08-12T05:54:59;101106.78;;;22.33;100.00
8140;BME280;4111;50.972;7.072;2023-08-12T05:57:25;101112.50;;;22.36;100.00
8140;BME280;4111;50.972;7.072;2023-08-12T05:59:55;101114.63;;;22.40;100.00
8140;BME280;4111;50.972;7.072;2023-08-12T06:02:21;101120.41;;;22.29;100.00
8140;BME280;4111;50.972;7.072;2023-08-12T06:04:47;101115.41;;;22.09;100.00
8140;BME280;4111;50.972;7.072;2023-08-12T06:07:14;101113.00;;;21.93;100.00
8140;BME280;4111;50.972;7.072;2023-08-12T06:09:40;101121.25;;;21.85;100.00
8140;BME280;4111;50.972;7.072;2023-08-12T06:12:07;101115.78;;;21.71;100.00
8140;BME280;4111;50.972;7.072;2023-08-12T06:14:37;101112.81;;;21.67;100.00
8140;BME280;4111;50.972;7.072;2023-08-12T06:17:04;101124.41;;;21.55;100.00
8140;BME280;4111;50.972;7.072;2023-08-12T06:19:31;101122.25;;;21.52;100.00
8140;BME280;4111;50.972;7.072;2023-08-12T06:21:57;101117.59;;;21.39;100.00
8140;BME280;4111;50.972;7.072;2023-08-12T06:24:24;101114.41;;;21.32;100.00
8140;BME280;4111;50.972;7.072;2023-08-12T06:26:50;101107.88;;;21.28;100.00
8140;BME280;4111;50.972;7.072;2023-08-12T06:29:17;101108.50;;;21.25;100.00
8140;BME280;4111;50.972;7.072;2023-08-12T06:31:43;101096.63;;;21.24;100.00
8140;BME280;4111;50.972;7.072;2023-08-12T06:34:10;101085.50;;;21.15;100.00
8140;BME280;4111;50.972;7.072;2023-08-12T06:36:36;101091.03;;;21.15;100.00
8140;BME280;4111;50.972;7.072;2023-08-12T06:39:03;101102.69;;;21.12;100.00
8140;BME280;4111;50.972;7.072;2023-08-12T06:41:29;101081.84;;;21.06;100.00
8140;BME280;4111;50.972;7.072;2023-08-12T06:43:56;101075.00;;;21.04;100.00
8140;BME280;4111;50.972;7.072;2023-08-12T06:46:22;101077.47;;;21.05;100.00
8140;BME280;4111;50.972;7.072;2023-08-12T06:48:49;101067.22;;;21.06;100.00
8140;BME280;4111;50.972;7.072;2023-08-12T06:51:15;101046.59;;;21.03;100.00
8140;BME280;4111;50.972;7.072;2023-08-12T06:53:41;101038.97;;;21.09;100.00
8140;BME280;4111;50.972;7.072;2023-08-12T06:56:08;101058.63;;;21.07;100.00
8140;BME280;4111;50.972;7.072;2023-08-12T06:58:34;101067.00;;;21.16;100.00
8140;BME280;4111;50.972;7.072;2023-08-12T07:01:01;101066.19;;;21.15;100.00
8140;BME280;4111;50.972;7.072;2023-08-12T07:03:27;101059.00;;;21.14;100.00
8140;BME280;4111;50.972;7.072;2023-08-12T07:05:54;101060.25;;;21.08;100.00
8140;BME280;4111;50.972;7.072;2023-08-12T07:10:47;101058.41;;;21.17;100.00
8140;BME280;4111;50.972;7.072;2023-08-12T07:13:14;101046.69;;;21.34;100.00
8140;BME280;4111;50.972;7.072;2023-08-12T07:15:40;101043.59;;;21.36;100.00
8140;BME280;4111;50.972;7.072;2023-08-12T07:18:07;101026.44;;;21.39;100.00
8140;BME280;4111;50.972;7.072;2023-08-12T07:20:33;101025.28;;;21.40;100.00
8140;BME280;4111;50.972;7.072;2023-08-12T07:23:00;101004.31;;;21.39;100.00
8140;BME280;4111;50.972;7.072;2023-08-12T07:25:26;101007.09;;;21.39;100.00
8140;BME280;4111;50.972;7.072;2023-08-12T07:27:52;101051.78;;;21.41;100.00
8140;BME280;4111;50.972;7.072;2023-08-12T07:30:19;101068.59;;;21.45;100.00
8140;BME280;4111;50.972;7.072;2023-08-12T07:32:45;101074.69;;;21.55;100.00
8140;BME280;4111;50.972;7.072;2023-08-12T07:35:12;101078.34;;;21.65;100.00
8140;BME280;4111;50.972;7.072;2023-08-12T07:37:39;101093.03;;;21.74;100.00
8140;BME280;4111;50.972;7.072;2023-08-12T07:40:05;101084.22;;;21.72;100.00
8140;BME280;4111;50.972;7.072;2023-08-12T07:42:32;101077.09;;;21.71;100.00
8140;BME280;4111;50.972;7.072;2023-08-12T07:44:58;101083.72;;;21.70;100.00
8140;BME280;4111;50.972;7.072;2023-08-12T07:47:26;101080.16;;;21.69;100.00
8140;BME280;4111;50.972;7.072;2023-08-12T07:49:52;101080.03;;;21.74;100.00
8140;BME280;4111;50.972;7.072;2023-08-12T07:52:19;101076.63;;;21.77;100.00
8140;BME280;4111;50.972;7.072;2023-08-12T07:54:45;101074.56;;;21.83;100.00
8140;BME280;4111;50.972;7.072;2023-08-12T07:57:12;101069.19;;;22.32;100.00
8140;BME280;4111;50.972;7.072;2023-08-12T07:59:38;101066.63;;;22.93;100.00
8140;BME280;4111;50.972;7.072;2023-08-12T08:02:05;101068.19;;;23.25;100.00
8140;BME280;4111;50.972;7.072;2023-08-12T08:04:33;101050.41;;;23.52;100.00
8140;BME280;4111;50.972;7.072;2023-08-12T08:07:00;101061.81;;;23.94;100.00
8140;BME280;4111;50.972;7.072;2023-08-12T08:09:27;101066.94;;;24.22;100.00
8140;BME280;4111;50.972;7.072;2023-08-12T08:11:53;101067.47;;;24.15;100.00
8140;BME280;4111;50.972;7.072;2023-08-12T08:14:22;101068.63;;;24.06;100.00
8140;BME280;4111;50.972;7.072;2023-08-12T08:16:49;101057.38;;;24.02;100.00
8140;BME280;4111;50.972;7.072;2023-08-12T08:19:16;101055.22;;;24.64;100.00
8140;BME280;4111;50.972;7.072;2023-08-12T08:21:42;101056.66;;;24.31;100.00
8140;BME280;4111;50.972;7.072;2023-08-12T08:24:09;101051.31;;;24.09;100.00
8140;BME280;4111;50.972;7.072;2023-08-12T08:26:38;101036.59;;;24.26;100.00
8140;BME280;4111;50.972;7.072;2023-08-12T08:29:04;101046.72;;;24.69;100.00
8140;BME280;4111;50.972;7.072;2023-08-12T08:31:31;101041.38;;;24.85;99.90
8140;BME280;4111;50.972;7.072;2023-08-12T08:33:57;101045.41;;;24.96;98.55
8140;BME280;4111;50.972;7.072;2023-08-12T08:36:24;101042.94;;;25.24;97.12
8140;BME280;4111;50.972;7.072;2023-08-12T08:38:50;101051.78;;;25.60;95.91
8140;BME280;4111;50.972;7.072;2023-08-12T08:41:17;101068.53;;;25.51;93.25
8140;BME280;4111;50.972;7.072;2023-08-12T08:43:45;101059.63;;;25.79;92.68
8140;BME280;4111;50.972;7.072;2023-08-12T08:46:16;101072.41;;;25.59;91.66
8140;BME280;4111;50.972;7.072;2023-08-12T08:48:43;101073.34;;;25.21;91.53
8140;BME280;4111;50.972;7.072;2023-08-12T08:51:10;101059.63;;;25.24;91.87
8140;BME280;4111;50.972;7.072;2023-08-12T08:53:37;101075.94;;;25.47;92.20
8140;BME280;4111;50.972;7.072;2023-08-12T08:56:06;101070.72;;;25.45;92.27
8140;BME280;4111;50.972;7.072;2023-08-12T08:58:40;101069.94;;;25.15;91.47
8140;BME280;4111;50.972;7.072;2023-08-12T09:01:07;101078.97;;;25.12;92.38
8140;BME280;4111;50.972;7.072;2023-08-12T09:03:36;101076.38;;;25.07;92.28
8140;BME280;4111;50.972;7.072;2023-08-12T09:06:04;101074.94;;;25.01;92.17
8140;BME280;4111;50.972;7.072;2023-08-12T09:08:31;101085.03;;;25.05;92.54
8140;BME280;4111;50.972;7.072;2023-08-12T09:10:59;101069.78;;;25.11;92.03
8140;BME280;4111;50.972;7.072;2023-08-12T09:13:26;101063.28;;;25.07;91.98
8140;BME280;4111;50.972;7.072;2023-08-12T09:15:53;101067.16;;;25.24;92.39
8140;BME280;4111;50.972;7.072;2023-08-12T09:18:20;101079.19;;;25.70;92.25
8140;BME280;4111;50.972;7.072;2023-08-12T09:20:51;101079.28;;;25.95;91.49
8140;BME280;4111;50.972;7.072;2023-08-12T09:23:17;101073.19;;;26.01;91.20
8140;BME280;4111;50.972;7.072;2023-08-12T09:25:45;101077.50;;;26.11;89.84
8140;BME280;4111;50.972;7.072;2023-08-12T09:28:12;101081.19;;;26.03;89.60
8140;BME280;4111;50.972;7.072;2023-08-12T09:30:39;101087.25;;;25.63;88.93
8140;BME280;4111;50.972;7.072;2023-08-12T09:33:08;101087.88;;;25.47;89.26
8140;BME280;4111;50.972;7.072;2023-08-12T09:35:41;101080.34;;;25.27;89.69
8140;BME280;4111;50.972;7.072;2023-08-12T09:38:11;101077.47;;;25.14;90.25
8140;BME280;4111;50.972;7.072;2023-08-12T09:40:39;101074.09;;;25.51;90.95
8140;BME280;4111;50.972;7.072;2023-08-12T09:43:06;101078.75;;;25.80;89.08
8140;BME280;4111;50.972;7.072;2023-08-12T09:45:34;101070.38;;;25.68;87.62
8140;BME280;4111;50.972;7.072;2023-08-12T09:48:01;101064.47;;;25.69;87.07
8140;BME280;4111;50.972;7.072;2023-08-12T09:50:28;101064.34;;;25.66;86.79
8140;BME280;4111;50.972;7.072;2023-08-12T09:52:55;101065.22;;;25.58;87.12
8140;BME280;4111;50.972;7.072;2023-08-12T09:55:24;101057.50;;;25.63;86.92
8140;BME280;4111;50.972;7.072;2023-08-12T09:57:52;101061.56;;;25.99;86.55
8140;BME280;4111;50.972;7.072;2023-08-12T10:00:21;101067.28;;;26.15;85.17
8140;BME280;4111;50.972;7.072;2023-08-12T10:02:50;101070.78;;;26.24;85.33
8140;BME280;4111;50.972;7.072;2023-08-12T10:05:21;101064.19;;;26.29;84.43
8140;BME280;4111;50.972;7.072;2023-08-12T10:07:48;101071.41;;;26.42;83.70
8140;BME280;4111;50.972;7.072;2023-08-12T10:10:15;101066.63;;;26.30;82.84
8140;BME280;4111;50.972;7.072;2023-08-12T10:12:42;101057.25;;;26.47;82.59
8140;BME280;4111;50.972;7.072;2023-08-12T10:15:09;101059.44;;;26.42;82.41
8140;BME280;4111;50.972;7.072;2023-08-12T10:17:38;101067.44;;;26.56;82.34
8140;BME280;4111;50.972;7.072;2023-08-12T10:20:13;101061.09;;;26.80;81.59
8140;BME280;4111;50.972;7.072;2023-08-12T10:22:40;101053.09;;;26.66;80.84
8140;BME280;4111;50.972;7.072;2023-08-12T10:25:08;101065.38;;;26.52;80.99
8140;BME280;4111;50.972;7.072;2023-08-12T10:27:38;101064.66;;;26.31;81.32
8140;BME280;4111;50.972;7.072;2023-08-12T10:30:06;101058.84;;;26.24;82.19
8140;BME280;4111;50.972;7.072;2023-08-12T10:32:34;101054.53;;;26.14;82.67
8140;BME280;4111;50.972;7.072;2023-08-12T10:35:01;101041.03;;;25.91;82.45
8140;BME280;4111;50.972;7.072;2023-08-12T10:37:31;101050.66;;;25.94;82.93
8140;BME280;4111;50.972;7.072;2023-08-12T10:39:58;101054.66;;;25.84;83.57
8140;BME280;4111;50.972;7.072;2023-08-12T10:42:41;101050.59;;;26.03;84.32
8140;BME280;4111;50.972;7.072;2023-08-12T10:45:10;101049.66;;;26.11;84.27
8140;BME280;4111;50.972;7.072;2023-08-12T10:50:26;101044.97;;;25.90;83.42
8140;BME280;4111;50.972;7.072;2023-08-12T10:52:53;101049.78;;;25.81;84.15
8140;BME280;4111;50.972;7.072;2023-08-12T10:55:23;101044.91;;;25.78;84.42
8140;BME280;4111;50.972;7.072;2023-08-12T10:57:52;101041.19;;;25.74;84.85
8140;BME280;4111;50.972;7.072;2023-08-12T11:00:26;101035.25;;;25.63;85.02
8140;BME280;4111;50.972;7.072;2023-08-12T11:02:54;101046.53;;;25.25;86.30
8140;BME280;4111;50.972;7.072;2023-08-12T11:05:21;101030.97;;;25.03;87.38
8140;BME280;4111;50.972;7.072;2023-08-12T11:07:56;101026.41;;;24.77;88.97
8140;BME280;4111;50.972;7.072;2023-08-12T11:10:25;101015.75;;;24.49;90.84
8140;BME280;4111;50.972;7.072;2023-08-12T11:15:41;101016.47;;;24.29;92.84
8140;BME280;4111;50.972;7.072;2023-08-12T11:18:09;101013.09;;;24.23;93.50
8140;BME280;4111;50.972;7.072;2023-08-12T11:20:37;101015.56;;;24.16;94.61
8140;BME280;4111;50.972;7.072;2023-08-12T11:23:04;101016.22;;;24.13;95.27
8140;BME280;4111;50.972;7.072;2023-08-12T11:25:32;101003.69;;;24.07;96.60
8140;BME280;4111;50.972;7.072;2023-08-12T11:27:59;100996.38;;;24.02;97.53
8140;BME280;4111;50.972;7.072;2023-08-12T11:30:26;100992.31;;;24.00;98.25
8140;BME280;4111;50.972;7.072;2023-08-12T11:32:58;101000.63;;;24.00;98.29
8140;BME280;4111;50.972;7.072;2023-08-12T11:35:25;100994.59;;;23.98;99.13
8140;BME280;4111;50.972;7.072;2023-08-12T11:37:54;100989.47;;;24.08;99.56
8140;BME280;4111;50.972;7.072;2023-08-12T11:40:22;100995.66;;;24.14;99.60
8140;BME280;4111;50.972;7.072;2023-08-12T11:42:51;101001.84;;;24.20;99.61
8140;BME280;4111;50.972;7.072;2023-08-12T11:45:19;100997.09;;;24.20;100.00
8140;BME280;4111;50.972;7.072;2023-08-12T11:47:46;100998.59;;;24.18;100.00
8140;BME280;4111;50.972;7.072;2023-08-12T11:50:22;100992.91;;;24.14;100.00
8140;BME280;4111;50.972;7.072;2023-08-12T11:52:50;100988.84;;;24.11;100.00
8140;BME280;4111;50.972;7.072;2023-08-12T11:55:17;100993.38;;;24.16;100.00
8140;BME280;4111;50.972;7.072;2023-08-12T11:57:44;100986.34;;;24.19;100.00
8140;BME280;4111;50.972;7.072;2023-08-12T12:00:12;100992.91;;;24.14;98.03
8140;BME280;4111;50.972;7.072;2023-08-12T12:02:52;100985.06;;;24.16;97.45
8140;BME280;4111;50.972;7.072;2023-08-12T12:05:22;100990.59;;;24.16;96.28
8140;BME280;4111;50.972;7.072;2023-08-12T12:07:50;100982.75;;;24.18;95.52
8140;BME280;4111;50.972;7.072;2023-08-12T12:12:59;100982.44;;;24.20;94.65
8140;BME280;4111;50.972;7.072;2023-08-12T12:15:26;100989.41;;;24.26;94.38
8140;BME280;4111;50.972;7.072;2023-08-12T12:17:53;100987.59;;;24.30;94.01
8140;BME280;4111;50.972;7.072;2023-08-12T12:20:19;100985.47;;;24.27;93.82
8140;BME280;4111;50.972;7.072;2023-08-12T12:22:48;100983.53;;;24.27;93.52
8140;BME280;4111;50.972;7.072;2023-08-12T12:25:16;100987.13;;;24.28;93.68
8140;BME280;4111;50.972;7.072;2023-08-12T12:27:46;100981.72;;;24.31;93.83
8140;BME280;4111;50.972;7.072;2023-08-12T12:30:13;100986.59;;;24.34;93.89
8140;BME280;4111;50.972;7.072;2023-08-12T12:32:40;100995.75;;;24.35;94.26
8140;BME280;4111;50.972;7.072;2023-08-12T12:35:07;100999.66;;;24.34;94.24
8140;BME280;4111;50.972;7.072;2023-08-12T12:37:34;100995.38;;;24.37;93.63
8140;BME280;4111;50.972;7.072;2023-08-12T12:40:02;100999.63;;;24.43;92.97
8140;BME280;4111;50.972;7.072;2023-08-12T12:42:29;101001.38;;;24.56;92.74
8140;BME280;4111;50.972;7.072;2023-08-12T12:44:56;101002.00;;;24.62;91.42
8140;BME280;4111;50.972;7.072;2023-08-12T12:47:22;101003.81;;;24.58;90.92
8140;BME280;4111;50.972;7.072;2023-08-12T12:49:49;101012.28;;;24.61;91.38
8140;BME280;4111;50.972;7.072;2023-08-12T12:52:15;101009.03;;;24.59;91.88
8140;BME280;4111;50.972;7.072;2023-08-12T12:54:41;101011.00;;;24.59;91.64
8140;BME280;4111;50.972;7.072;2023-08-12T12:57:08;101010.66;;;24.60;91.97
8140;BME280;4111;50.972;7.072;2023-08-12T12:59:34;101005.09;;;24.60;92.17
8140;BME280;4111;50.972;7.072;2023-08-12T13:02:01;101009.59;;;24.73;92.17
8140;BME280;4111;50.972;7.072;2023-08-12T13:04:27;101020.03;;;24.77;92.29
8140;BME280;4111;50.972;7.072;2023-08-12T13:06:54;101021.81;;;24.81;92.62
8140;BME280;4111;50.972;7.072;2023-08-12T13:09:20;101021.47;;;24.83;93.64
8140;BME280;4111;50.972;7.072;2023-08-12T13:11:47;101016.25;;;24.81;93.81
8140;BME280;4111;50.972;7.072;2023-08-12T13:14:13;101017.75;;;24.79;94.51
8140;BME280;4111;50.972;7.072;2023-08-12T13:16:39;101017.19;;;24.85;94.91